PWSweather.com
Personal Weather Stations
Station Observations
WXGLH1124
Southern Oaks, Indianapolis, IN 46217

Southern OaksIndianapolis, IN 46217

Lat: 39.65113, Lon: -86.16866

Elevation: 720

Station Type: Vantage Pro2

High Low Average
Temperature 50.8°F10.4°C 26.5°F-3.1°C 39.5°F4.2°C
Dew Point 48.3°F9.1°C 23.4°F-4.8°C 36.9°F2.7°C
Winds 13.0 mph 20.9 kmh Calm Calm 4.0 mph WSW6.4 kmh WSW
Wind Gusts 17.0 mph27.4 kmh 2.0 mph3.2 kmh 8.0 mph12.9 kmh
Humidity 93% 80% 90%
Pressure 30.02 in1016.6 mb 29.71 in1006.1 mb -
Precipitation 0.00 in0.0 mm - -
Hour Temp Dew Point Humidity Winds Wind Gusts Pressure Precip Precip Rate Daily Precip Total
12:00 AM 41.6°F5.3°C 32.2°F0.1°C 69% 3.0 mph SSW4.8 kmh SSW 10.0 mph16.1 kmh 30.03 in1016.9 mb 0.00 in0.0 mm 0.00 in0.0 mm 0.00 in0.0 mm
12:05 AM 41.5°F5.3°C 32.5°F0.3°C 70% 5.0 mph SSW8.0 kmh SSW 8.0 mph12.9 kmh 30.03 in1016.9 mb 0.00 in0.0 mm 0.00 in0.0 mm 0.00 in0.0 mm
12:10 AM 41.5°F5.3°C 32.8°F0.4°C 71% 3.0 mph S4.8 kmh S 7.0 mph11.3 kmh 30.02 in1016.6 mb 0.00 in0.0 mm 0.00 in0.0 mm 0.00 in0.0 mm
12:15 AM 41.5°F5.3°C 32.8°F0.4°C 71% 6.0 mph SSE9.7 kmh SSE 8.0 mph12.9 kmh 30.03 in1016.9 mb 0.00 in0.0 mm 0.00 in0.0 mm 0.00 in0.0 mm
12:20 AM 41.5°F5.3°C 32.8°F0.4°C 71% 9.0 mph S14.5 kmh S 9.0 mph14.5 kmh 30.03 in1016.9 mb 0.00 in0.0 mm 0.00 in0.0 mm 0.00 in0.0 mm
12:25 AM 41.5°F5.3°C 33.2°F0.7°C 72% 6.0 mph SSE9.7 kmh SSE 10.0 mph16.1 kmh 30.03 in1016.9 mb 0.00 in0.0 mm 0.00 in0.0 mm 0.00 in0.0 mm
12:30 AM 41.4°F5.2°C 33.4°F0.8°C 73% 7.0 mph S11.3 kmh S 8.0 mph12.9 kmh 30.02 in1016.6 mb 0.01 in0.3 mm 0.12 in3.0 mm 0.01 in0.3 mm
12:34 AM 41.0°F5.0°C 33.4°F0.8°C 74% 3.0 mph S4.8 kmh S 8.0 mph12.9 kmh 30.01 in1016.3 mb 0.01 in0.3 mm 0.00 in0.0 mm 0.01 in0.3 mm
12:39 AM 40.7°F4.8°C 33.7°F0.9°C 76% 2.0 mph SE3.2 kmh SE 9.0 mph14.5 kmh 30.01 in1016.3 mb 0.01 in0.3 mm 0.00 in0.0 mm 0.01 in0.3 mm
12:45 AM 40.5°F4.7°C 33.9°F1.1°C 77% 5.0 mph S8.0 kmh S 11.0 mph17.7 kmh 30.01 in1016.3 mb 0.02 in0.5 mm 0.10 in2.5 mm 0.02 in0.5 mm
12:50 AM 40.3°F4.6°C 34.0°F1.1°C 78% 8.0 mph S12.9 kmh S 12.0 mph19.3 kmh 30.01 in1016.3 mb 0.02 in0.5 mm 0.00 in0.0 mm 0.02 in0.5 mm
12:54 AM 40.2°F4.6°C 34.2°F1.2°C 79% 4.0 mph S6.4 kmh S 8.0 mph12.9 kmh 30.01 in1016.3 mb 0.02 in0.5 mm 0.00 in0.0 mm 0.02 in0.5 mm
01:00 AM 40.1°F4.5°C 34.4°F1.3°C 80% 3.0 mph S4.8 kmh S 8.0 mph12.9 kmh 30.02 in1016.6 mb 0.02 in0.5 mm 0.00 in0.0 mm 0.02 in0.5 mm
01:05 AM 40.1°F4.5°C 34.8°F1.6°C 81% 5.0 mph S8.0 kmh S 8.0 mph12.9 kmh 30.02 in1016.6 mb 0.02 in0.5 mm 0.00 in0.0 mm 0.02 in0.5 mm
01:10 AM 40.2°F4.6°C 35.2°F1.8°C 82% 4.0 mph SSE6.4 kmh SSE 6.0 mph9.7 kmh 30.01 in1016.3 mb 0.03 in0.8 mm 0.12 in3.0 mm 0.03 in0.8 mm
01:15 AM 40.2°F4.6°C 35.2°F1.8°C 82% Calm Calm 10.0 mph16.1 kmh 30.01 in1016.3 mb 0.03 in0.8 mm 0.00 in0.0 mm 0.03 in0.8 mm
01:20 AM 40.2°F4.6°C 35.5°F1.9°C 83% 7.0 mph S11.3 kmh S 9.0 mph14.5 kmh 30.00 in1015.9 mb 0.03 in0.8 mm 0.00 in0.0 mm 0.03 in0.8 mm
01:25 AM 40.1°F4.5°C 35.7°F2.1°C 84% 5.0 mph S8.0 kmh S 9.0 mph14.5 kmh 30.00 in1015.9 mb 0.03 in0.8 mm 0.00 in0.0 mm 0.03 in0.8 mm
01:30 AM 40.2°F4.6°C 36.1°F2.3°C 85% 3.0 mph S4.8 kmh S 8.0 mph12.9 kmh 30.00 in1015.9 mb 0.04 in1.0 mm 0.12 in3.0 mm 0.04 in1.0 mm
01:35 AM 40.2°F4.6°C 36.1°F2.3°C 85% 7.0 mph S11.3 kmh S 7.0 mph11.3 kmh 30.00 in1015.9 mb 0.03 in0.8 mm 0.00 in0.0 mm 0.04 in1.0 mm
01:40 AM 40.4°F4.7°C 36.6°F2.6°C 86% 5.0 mph SSW8.0 kmh SSW 12.0 mph19.3 kmh 29.99 in1015.6 mb 0.03 in0.8 mm 0.00 in0.0 mm 0.04 in1.0 mm
01:45 AM 40.4°F4.7°C 36.6°F2.6°C 86% 5.0 mph SSE8.0 kmh SSE 8.0 mph12.9 kmh 29.99 in1015.6 mb 0.03 in0.8 mm 0.00 in0.0 mm 0.04 in1.0 mm
01:50 AM 40.4°F4.7°C 36.8°F2.7°C 87% 4.0 mph S6.4 kmh S 9.0 mph14.5 kmh 29.99 in1015.6 mb 0.02 in0.5 mm 0.00 in0.0 mm 0.04 in1.0 mm
01:55 AM 40.5°F4.7°C 36.9°F2.7°C 87% 4.0 mph SSE6.4 kmh SSE 11.0 mph17.7 kmh 29.99 in1015.6 mb 0.03 in0.8 mm 0.12 in3.0 mm 0.05 in1.3 mm
02:00 AM 40.4°F4.7°C 36.8°F2.7°C 87% 5.0 mph S8.0 kmh S 8.0 mph12.9 kmh 29.98 in1015.2 mb 0.03 in0.8 mm 0.00 in0.0 mm 0.05 in1.3 mm
02:05 AM 40.5°F4.7°C 37.2°F2.9°C 88% 7.0 mph SSE11.3 kmh SSE 10.0 mph16.1 kmh 29.98 in1015.2 mb 0.03 in0.8 mm 0.00 in0.0 mm 0.05 in1.3 mm
02:10 AM 40.5°F4.7°C 37.2°F2.9°C 88% 6.0 mph SSE9.7 kmh SSE 7.0 mph11.3 kmh 29.98 in1015.2 mb 0.03 in0.8 mm 0.00 in0.0 mm 0.05 in1.3 mm
02:15 AM 40.5°F4.7°C 37.2°F2.9°C 88% 6.0 mph S9.7 kmh S 10.0 mph16.1 kmh 29.97 in1014.9 mb 0.03 in0.8 mm 0.00 in0.0 mm 0.05 in1.3 mm
02:20 AM 40.6°F4.8°C 37.3°F2.9°C 88% 4.0 mph SSE6.4 kmh SSE 12.0 mph19.3 kmh 29.97 in1014.9 mb 0.03 in0.8 mm 0.00 in0.0 mm 0.05 in1.3 mm
02:25 AM 40.6°F4.8°C 37.6°F3.1°C 89% 3.0 mph SE4.8 kmh SE 9.0 mph14.5 kmh 29.97 in1014.9 mb 0.03 in0.8 mm 0.00 in0.0 mm 0.05 in1.3 mm
02:30 AM 40.7°F4.8°C 37.7°F3.2°C 89% 5.0 mph SSE8.0 kmh SSE 9.0 mph14.5 kmh 29.96 in1014.6 mb 0.02 in0.5 mm 0.00 in0.0 mm 0.05 in1.3 mm
02:34 AM 40.9°F4.9°C 37.9°F3.3°C 89% 9.0 mph SSW14.5 kmh SSW 11.0 mph17.7 kmh 29.96 in1014.6 mb 0.02 in0.5 mm 0.00 in0.0 mm 0.05 in1.3 mm
02:39 AM 41.0°F5.0°C 38.0°F3.3°C 89% 9.0 mph S14.5 kmh S 9.0 mph14.5 kmh 29.96 in1014.6 mb 0.02 in0.5 mm 0.00 in0.0 mm 0.05 in1.3 mm
02:45 AM 41.2°F5.1°C 38.2°F3.4°C 89% 7.0 mph S11.3 kmh S 9.0 mph14.5 kmh 29.95 in1014.2 mb 0.02 in0.5 mm 0.00 in0.0 mm 0.05 in1.3 mm
02:50 AM 41.2°F5.1°C 38.2°F3.4°C 89% 3.0 mph SE4.8 kmh SE 7.0 mph11.3 kmh 29.95 in1014.2 mb 0.02 in0.5 mm 0.00 in0.0 mm 0.05 in1.3 mm
02:54 AM 41.3°F5.2°C 38.6°F3.7°C 90% 4.0 mph SSE6.4 kmh SSE 9.0 mph14.5 kmh 29.95 in1014.2 mb 0.02 in0.5 mm 0.00 in0.0 mm 0.05 in1.3 mm
03:00 AM 41.3°F5.2°C 38.6°F3.7°C 90% 8.0 mph S12.9 kmh S 8.0 mph12.9 kmh 29.94 in1013.9 mb 0.02 in0.5 mm 0.00 in0.0 mm 0.05 in1.3 mm
03:05 AM 41.4°F5.2°C 38.7°F3.7°C 90% 7.0 mph S11.3 kmh S 8.0 mph12.9 kmh 29.94 in1013.9 mb 0.02 in0.5 mm 0.00 in0.0 mm 0.05 in1.3 mm
03:10 AM 41.5°F5.3°C 38.8°F3.8°C 90% 6.0 mph S9.7 kmh S 10.0 mph16.1 kmh 29.95 in1014.2 mb 0.03 in0.8 mm 0.12 in3.0 mm 0.06 in1.5 mm
03:15 AM 41.6°F5.3°C 38.9°F3.8°C 90% 3.0 mph SSE4.8 kmh SSE 10.0 mph16.1 kmh 29.94 in1013.9 mb 0.02 in0.5 mm 0.00 in0.0 mm 0.06 in1.5 mm
03:20 AM 41.6°F5.3°C 38.9°F3.8°C 90% 10.0 mph S16.1 kmh S 10.0 mph16.1 kmh 29.94 in1013.9 mb 0.02 in0.5 mm 0.00 in0.0 mm 0.06 in1.5 mm
03:25 AM 41.7°F5.4°C 39.0°F3.9°C 90% 7.0 mph SSW11.3 kmh SSW 9.0 mph14.5 kmh 29.94 in1013.9 mb 0.02 in0.5 mm 0.00 in0.0 mm 0.06 in1.5 mm
03:30 AM 41.9°F5.5°C 39.2°F4.0°C 90% 6.0 mph S9.7 kmh S 10.0 mph16.1 kmh 29.94 in1013.9 mb 0.02 in0.5 mm 0.00 in0.0 mm 0.06 in1.5 mm
03:35 AM 42.0°F5.6°C 39.3°F4.1°C 90% 5.0 mph S8.0 kmh S 10.0 mph16.1 kmh 29.94 in1013.9 mb 0.02 in0.5 mm 0.00 in0.0 mm 0.06 in1.5 mm
03:40 AM 42.1°F5.6°C 39.4°F4.1°C 90% 6.0 mph SE9.7 kmh SE 8.0 mph12.9 kmh 29.94 in1013.9 mb 0.03 in0.8 mm 0.12 in3.0 mm 0.07 in1.8 mm
03:45 AM 42.3°F5.7°C 39.9°F4.4°C 91% 6.0 mph SSE9.7 kmh SSE 7.0 mph11.3 kmh 29.94 in1013.9 mb 0.03 in0.8 mm 0.00 in0.0 mm 0.07 in1.8 mm
03:50 AM 42.4°F5.8°C 40.0°F4.4°C 91% 4.0 mph SSW6.4 kmh SSW 7.0 mph11.3 kmh 29.94 in1013.9 mb 0.04 in1.0 mm 0.12 in3.0 mm 0.08 in2.0 mm
03:55 AM 42.5°F5.8°C 40.1°F4.5°C 91% 4.0 mph S6.4 kmh S 12.0 mph19.3 kmh 29.94 in1013.9 mb 0.04 in1.0 mm 0.00 in0.0 mm 0.08 in2.0 mm
03:59 AM 42.6°F5.9°C 40.2°F4.6°C 91% 2.0 mph SSE3.2 kmh SSE 6.0 mph9.7 kmh 29.93 in1013.5 mb 0.03 in0.8 mm 0.00 in0.0 mm 0.08 in2.0 mm
04:05 AM 42.8°F6.0°C 40.4°F4.7°C 91% 7.0 mph SSE11.3 kmh SSE 11.0 mph17.7 kmh 29.93 in1013.5 mb 0.03 in0.8 mm 0.00 in0.0 mm 0.08 in2.0 mm
04:10 AM 42.9°F6.1°C 40.5°F4.7°C 91% 4.0 mph S6.4 kmh S 8.0 mph12.9 kmh 29.93 in1013.5 mb 0.02 in0.5 mm 0.00 in0.0 mm 0.08 in2.0 mm
04:15 AM 43.0°F6.1°C 40.6°F4.8°C 91% 7.0 mph S11.3 kmh S 9.0 mph14.5 kmh 29.93 in1013.5 mb 0.02 in0.5 mm 0.00 in0.0 mm 0.08 in2.0 mm
04:20 AM 43.0°F6.1°C 40.6°F4.8°C 91% 4.0 mph SSE6.4 kmh SSE 9.0 mph14.5 kmh 29.92 in1013.2 mb 0.03 in0.8 mm 0.12 in3.0 mm 0.09 in2.3 mm
04:25 AM 43.0°F6.1°C 40.6°F4.8°C 91% 3.0 mph S4.8 kmh S 9.0 mph14.5 kmh 29.92 in1013.2 mb 0.03 in0.8 mm 0.00 in0.0 mm 0.09 in2.3 mm
04:30 AM 43.0°F6.1°C 40.6°F4.8°C 91% 4.0 mph S6.4 kmh S 9.0 mph14.5 kmh 29.92 in1013.2 mb 0.04 in1.0 mm 0.12 in3.0 mm 0.10 in2.5 mm
04:35 AM 43.0°F6.1°C 40.6°F4.8°C 91% 8.0 mph SSE12.9 kmh SSE 9.0 mph14.5 kmh 29.91 in1012.9 mb 0.05 in1.3 mm 0.12 in3.0 mm 0.11 in2.8 mm
04:39 AM 43.1°F6.2°C 40.7°F4.8°C 91% 6.0 mph SSE9.7 kmh SSE 10.0 mph16.1 kmh 29.91 in1012.9 mb 0.06 in1.5 mm 0.15 in3.8 mm 0.12 in3.0 mm
04:45 AM 43.0°F6.1°C 40.6°F4.8°C 91% 6.0 mph S9.7 kmh S 8.0 mph12.9 kmh 29.91 in1012.9 mb 0.06 in1.5 mm 0.00 in0.0 mm 0.12 in3.0 mm
04:50 AM 43.1°F6.2°C 40.7°F4.8°C 91% 5.0 mph SSW8.0 kmh SSW 14.0 mph22.5 kmh 29.91 in1012.9 mb 0.07 in1.8 mm 0.12 in3.0 mm 0.13 in3.3 mm
04:55 AM 43.2°F6.2°C 40.8°F4.9°C 91% 8.0 mph SSW12.9 kmh SSW 16.0 mph25.7 kmh 29.91 in1012.9 mb 0.07 in1.8 mm 0.00 in0.0 mm 0.13 in3.3 mm
05:00 AM 43.3°F6.3°C 40.9°F4.9°C 91% 4.0 mph SSW6.4 kmh SSW 15.0 mph24.1 kmh 29.90 in1012.5 mb 0.08 in2.0 mm 0.01 in0.3 mm 0.14 in3.6 mm
05:05 AM 43.2°F6.2°C 40.8°F4.9°C 91% 9.0 mph SSE14.5 kmh SSE 11.0 mph17.7 kmh 29.90 in1012.5 mb 0.10 in2.5 mm 0.24 in6.1 mm 0.16 in4.1 mm
05:10 AM 43.2°F6.2°C 40.8°F4.9°C 91% 3.0 mph S4.8 kmh S 9.0 mph14.5 kmh 29.90 in1012.5 mb 0.11 in2.8 mm 0.12 in3.0 mm 0.17 in4.3 mm
05:15 AM 43.2°F6.2°C 41.0°F5.0°C 92% 5.0 mph SSW8.0 kmh SSW 10.0 mph16.1 kmh 29.89 in1012.2 mb 0.12 in3.0 mm 0.12 in3.0 mm 0.18 in4.6 mm
05:20 AM 43.2°F6.2°C 41.0°F5.0°C 92% 8.0 mph SSE12.9 kmh SSE 9.0 mph14.5 kmh 29.89 in1012.2 mb 0.13 in3.3 mm 0.12 in3.0 mm 0.19 in4.8 mm
05:25 AM 43.1°F6.2°C 40.7°F4.8°C 91% 7.0 mph S11.3 kmh S 10.0 mph16.1 kmh 29.88 in1011.9 mb 0.14 in3.6 mm 0.12 in3.0 mm 0.20 in5.1 mm
05:30 AM 43.1°F6.2°C 40.9°F4.9°C 92% 6.0 mph S9.7 kmh S 10.0 mph16.1 kmh 29.88 in1011.9 mb 0.14 in3.6 mm 0.00 in0.0 mm 0.20 in5.1 mm
05:35 AM 43.1°F6.2°C 40.9°F4.9°C 92% 7.0 mph SSE11.3 kmh SSE 9.0 mph14.5 kmh 29.87 in1011.5 mb 0.15 in3.8 mm 0.12 in3.0 mm 0.21 in5.3 mm
05:40 AM 43.2°F6.2°C 41.0°F5.0°C 92% 9.0 mph SSE14.5 kmh SSE 9.0 mph14.5 kmh 29.87 in1011.5 mb 0.14 in3.6 mm 0.00 in0.0 mm 0.21 in5.3 mm
05:45 AM 43.2°F6.2°C 41.0°F5.0°C 92% 5.0 mph SSE8.0 kmh SSE 8.0 mph12.9 kmh 29.86 in1011.2 mb 0.15 in3.8 mm 0.12 in3.0 mm 0.22 in5.6 mm
05:50 AM 43.3°F6.3°C 41.1°F5.1°C 92% 6.0 mph SSW9.7 kmh SSW 9.0 mph14.5 kmh 29.85 in1010.8 mb 0.15 in3.8 mm 0.00 in0.0 mm 0.22 in5.6 mm
05:55 AM 43.4°F6.3°C 41.2°F5.1°C 92% 8.0 mph S12.9 kmh S 9.0 mph14.5 kmh 29.85 in1010.8 mb 0.16 in4.1 mm 0.12 in3.0 mm 0.23 in5.8 mm
06:00 AM 43.5°F6.4°C 41.3°F5.2°C 92% 5.0 mph S8.0 kmh S 9.0 mph14.5 kmh 29.85 in1010.8 mb 0.14 in3.6 mm 0.00 in0.0 mm 0.23 in5.8 mm
06:05 AM 43.6°F6.4°C 41.4°F5.2°C 92% 7.0 mph S11.3 kmh S 10.0 mph16.1 kmh 29.85 in1010.8 mb 0.14 in3.6 mm 0.00 in0.0 mm 0.23 in5.8 mm
06:10 AM 43.7°F6.5°C 41.5°F5.3°C 92% 4.0 mph SSE6.4 kmh SSE 11.0 mph17.7 kmh 29.85 in1010.8 mb 0.13 in3.3 mm 0.00 in0.0 mm 0.23 in5.8 mm
06:15 AM 43.8°F6.6°C 41.6°F5.3°C 92% 7.0 mph SSE11.3 kmh SSE 11.0 mph17.7 kmh 29.84 in1010.5 mb 0.12 in3.0 mm 0.00 in0.0 mm 0.23 in5.8 mm
06:20 AM 43.8°F6.6°C 41.6°F5.3°C 92% 6.0 mph SSE9.7 kmh SSE 6.0 mph9.7 kmh 29.84 in1010.5 mb 0.13 in3.3 mm 0.12 in3.0 mm 0.24 in6.1 mm
06:24 AM 43.9°F6.6°C 41.7°F5.4°C 92% 5.0 mph S8.0 kmh S 10.0 mph16.1 kmh 29.83 in1010.2 mb 0.12 in3.0 mm 0.00 in0.0 mm 0.24 in6.1 mm
06:30 AM 44.0°F6.7°C 41.8°F5.4°C 92% 4.0 mph SE6.4 kmh SE 10.0 mph16.1 kmh 29.82 in1009.8 mb 0.12 in3.0 mm 0.00 in0.0 mm 0.24 in6.1 mm
06:35 AM 44.0°F6.7°C 41.8°F5.4°C 92% 5.0 mph S8.0 kmh S 8.0 mph12.9 kmh 29.82 in1009.8 mb 0.11 in2.8 mm 0.00 in0.0 mm 0.24 in6.1 mm
06:40 AM 44.1°F6.7°C 41.9°F5.5°C 92% 3.0 mph S4.8 kmh S 8.0 mph12.9 kmh 29.82 in1009.8 mb 0.10 in2.5 mm 0.00 in0.0 mm 0.24 in6.1 mm
06:44 AM 44.1°F6.7°C 41.9°F5.5°C 92% 7.0 mph S11.3 kmh S 9.0 mph14.5 kmh 29.82 in1009.8 mb 0.10 in2.5 mm 0.00 in0.0 mm 0.24 in6.1 mm
06:49 AM 44.2°F6.8°C 42.0°F5.6°C 92% 3.0 mph S4.8 kmh S 10.0 mph16.1 kmh 29.82 in1009.8 mb 0.09 in2.3 mm 0.00 in0.0 mm 0.24 in6.1 mm
06:55 AM 44.3°F6.8°C 42.4°F5.8°C 93% 7.0 mph S11.3 kmh S 11.0 mph17.7 kmh 29.82 in1009.8 mb 0.08 in2.0 mm 0.00 in0.0 mm 0.24 in6.1 mm
06:59 AM 44.3°F6.8°C 42.4°F5.8°C 93% 8.0 mph S12.9 kmh S 10.0 mph16.1 kmh 29.81 in1009.5 mb 0.08 in2.0 mm 0.00 in0.0 mm 0.24 in6.1 mm
07:05 AM 44.5°F6.9°C 42.6°F5.9°C 93% 2.0 mph S3.2 kmh S 8.0 mph12.9 kmh 29.81 in1009.5 mb 0.08 in2.0 mm 0.00 in0.0 mm 0.24 in6.1 mm
07:10 AM 44.6°F7.0°C 42.7°F5.9°C 93% 3.0 mph S4.8 kmh S 7.0 mph11.3 kmh 29.81 in1009.5 mb 0.08 in2.0 mm 0.00 in0.0 mm 0.24 in6.1 mm
07:14 AM 44.7°F7.1°C 42.5°F5.8°C 92% 7.0 mph S11.3 kmh S 7.0 mph11.3 kmh 29.81 in1009.5 mb 0.08 in2.0 mm 0.00 in0.0 mm 0.24 in6.1 mm
07:20 AM 44.9°F7.2°C 42.7°F5.9°C 92% 6.0 mph SSW9.7 kmh SSW 12.0 mph19.3 kmh 29.80 in1009.1 mb 0.08 in2.0 mm 0.00 in0.0 mm 0.24 in6.1 mm
07:25 AM 45.2°F7.3°C 43.3°F6.3°C 93% 4.0 mph S6.4 kmh S 14.0 mph22.5 kmh 29.80 in1009.1 mb 0.08 in2.0 mm 0.00 in0.0 mm 0.24 in6.1 mm
07:30 AM 45.3°F7.4°C 43.4°F6.3°C 93% 5.0 mph S8.0 kmh S 8.0 mph12.9 kmh 29.80 in1009.1 mb 0.08 in2.0 mm 0.00 in0.0 mm 0.24 in6.1 mm
07:35 AM 45.5°F7.5°C 43.6°F6.4°C 93% 3.0 mph SSW4.8 kmh SSW 12.0 mph19.3 kmh 29.80 in1009.1 mb 0.08 in2.0 mm 0.00 in0.0 mm 0.24 in6.1 mm
07:40 AM 45.6°F7.6°C 43.7°F6.5°C 93% 5.0 mph S8.0 kmh S 9.0 mph14.5 kmh 29.79 in1008.8 mb 0.08 in2.0 mm 0.00 in0.0 mm 0.24 in6.1 mm
07:45 AM 45.7°F7.6°C 43.8°F6.6°C 93% 5.0 mph SSE8.0 kmh SSE 12.0 mph19.3 kmh 29.79 in1008.8 mb 0.08 in2.0 mm 0.00 in0.0 mm 0.24 in6.1 mm
07:50 AM 45.9°F7.7°C 44.0°F6.7°C 93% 10.0 mph SW16.1 kmh SW 10.0 mph16.1 kmh 29.79 in1008.8 mb 0.09 in2.3 mm 0.12 in3.0 mm 0.25 in6.4 mm
07:55 AM 46.1°F7.8°C 44.2°F6.8°C 93% 8.0 mph SSE12.9 kmh SSE 12.0 mph19.3 kmh 29.79 in1008.8 mb 0.09 in2.3 mm 0.00 in0.0 mm 0.25 in6.4 mm
08:00 AM 46.2°F7.9°C 44.3°F6.8°C 93% 3.0 mph S4.8 kmh S 9.0 mph14.5 kmh 29.79 in1008.8 mb 0.10 in2.5 mm 0.01 in0.3 mm 0.26 in6.6 mm
08:05 AM 46.3°F7.9°C 44.4°F6.9°C 93% 6.0 mph S9.7 kmh S 9.0 mph14.5 kmh 29.79 in1008.8 mb 0.10 in2.5 mm 0.00 in0.0 mm 0.26 in6.6 mm
08:09 AM 46.5°F8.1°C 44.6°F7.0°C 93% 4.0 mph S6.4 kmh S 11.0 mph17.7 kmh 29.80 in1009.1 mb 0.11 in2.8 mm 0.15 in3.8 mm 0.27 in6.9 mm
08:15 AM 46.5°F8.1°C 44.6°F7.0°C 93% 5.0 mph SW8.0 kmh SW 10.0 mph16.1 kmh 29.81 in1009.5 mb 0.11 in2.8 mm 0.00 in0.0 mm 0.27 in6.9 mm
08:20 AM 46.6°F8.1°C 44.7°F7.1°C 93% 4.0 mph W6.4 kmh W 9.0 mph14.5 kmh 29.82 in1009.8 mb 0.12 in3.0 mm 0.12 in3.0 mm 0.28 in7.1 mm
08:25 AM 46.7°F8.2°C 44.8°F7.1°C 93% 5.0 mph SW8.0 kmh SW 11.0 mph17.7 kmh 29.82 in1009.8 mb 0.12 in3.0 mm 0.00 in0.0 mm 0.28 in7.1 mm
08:30 AM 46.7°F8.2°C 44.5°F6.9°C 92% 2.0 mph SW3.2 kmh SW 8.0 mph12.9 kmh 29.82 in1009.8 mb 0.12 in3.0 mm 0.00 in0.0 mm 0.28 in7.1 mm
08:35 AM 46.7°F8.2°C 44.5°F6.9°C 92% 2.0 mph SW3.2 kmh SW 7.0 mph11.3 kmh 29.82 in1009.8 mb 0.14 in3.6 mm 0.24 in6.1 mm 0.30 in7.6 mm
08:39 AM 46.6°F8.1°C 44.4°F6.9°C 92% 3.0 mph S4.8 kmh S 4.0 mph6.4 kmh 29.82 in1009.8 mb 0.14 in3.6 mm 0.00 in0.0 mm 0.30 in7.6 mm
08:45 AM 46.7°F8.2°C 44.8°F7.1°C 93% 3.0 mph SW4.8 kmh SW 6.0 mph9.7 kmh 29.82 in1009.8 mb 0.14 in3.6 mm 0.00 in0.0 mm 0.30 in7.6 mm
08:50 AM 46.7°F8.2°C 44.8°F7.1°C 93% 1.0 mph SW1.6 kmh SW 4.0 mph6.4 kmh 29.82 in1009.8 mb 0.14 in3.6 mm 0.00 in0.0 mm 0.30 in7.6 mm
08:55 AM 46.7°F8.2°C 44.8°F7.1°C 93% 2.0 mph SW3.2 kmh SW 3.0 mph4.8 kmh 29.82 in1009.8 mb 0.14 in3.6 mm 0.00 in0.0 mm 0.30 in7.6 mm
09:00 AM 46.7°F8.2°C 44.8°F7.1°C 93% Calm Calm 3.0 mph4.8 kmh 29.82 in1009.8 mb 0.15 in3.8 mm 0.01 in0.3 mm 0.31 in7.9 mm
09:05 AM 46.7°F8.2°C 44.8°F7.1°C 93% Calm Calm 3.0 mph4.8 kmh 29.81 in1009.5 mb 0.14 in3.6 mm 0.00 in0.0 mm 0.31 in7.9 mm
09:10 AM 46.7°F8.2°C 44.8°F7.1°C 93% Calm Calm 2.0 mph3.2 kmh 29.81 in1009.5 mb 0.15 in3.8 mm 0.12 in3.0 mm 0.32 in8.1 mm
09:15 AM 46.7°F8.2°C 44.8°F7.1°C 93% 2.0 mph SSW3.2 kmh SSW 4.0 mph6.4 kmh 29.81 in1009.5 mb 0.15 in3.8 mm 0.00 in0.0 mm 0.32 in8.1 mm
09:20 AM 46.7°F8.2°C 44.8°F7.1°C 93% 1.0 mph SSW1.6 kmh SSW 3.0 mph4.8 kmh 29.82 in1009.8 mb 0.15 in3.8 mm 0.00 in0.0 mm 0.32 in8.1 mm
09:25 AM 46.7°F8.2°C 44.8°F7.1°C 93% 3.0 mph SSW4.8 kmh SSW 4.0 mph6.4 kmh 29.82 in1009.8 mb 0.15 in3.8 mm 0.00 in0.0 mm 0.32 in8.1 mm
09:30 AM 46.7°F8.2°C 44.8°F7.1°C 93% 1.0 mph SSW1.6 kmh SSW 3.0 mph4.8 kmh 29.82 in1009.8 mb 0.14 in3.6 mm 0.00 in0.0 mm 0.32 in8.1 mm
09:35 AM 46.7°F8.2°C 44.8°F7.1°C 93% Calm Calm 2.0 mph3.2 kmh 29.82 in1009.8 mb 0.14 in3.6 mm 0.00 in0.0 mm 0.32 in8.1 mm
09:39 AM 46.8°F8.2°C 44.9°F7.2°C 93% Calm Calm 2.0 mph3.2 kmh 29.82 in1009.8 mb 0.14 in3.6 mm 0.00 in0.0 mm 0.32 in8.1 mm
09:45 AM 46.8°F8.2°C 44.9°F7.2°C 93% 1.0 mph SSW1.6 kmh SSW 3.0 mph4.8 kmh 29.82 in1009.8 mb 0.13 in3.3 mm 0.00 in0.0 mm 0.32 in8.1 mm
09:49 AM 46.9°F8.3°C 45.0°F7.2°C 93% 2.0 mph SSW3.2 kmh SSW 3.0 mph4.8 kmh 29.82 in1009.8 mb 0.14 in3.6 mm 0.15 in3.8 mm 0.33 in8.4 mm
09:54 AM 46.9°F8.3°C 45.0°F7.2°C 93% 3.0 mph S4.8 kmh S 5.0 mph8.0 kmh 29.81 in1009.5 mb 0.12 in3.0 mm 0.00 in0.0 mm 0.33 in8.4 mm
10:00 AM 46.9°F8.3°C 45.0°F7.2°C 93% 2.0 mph S3.2 kmh S 5.0 mph8.0 kmh 29.81 in1009.5 mb 0.12 in3.0 mm 0.00 in0.0 mm 0.33 in8.4 mm
10:05 AM 46.9°F8.3°C 45.0°F7.2°C 93% 3.0 mph S4.8 kmh S 7.0 mph11.3 kmh 29.81 in1009.5 mb 0.12 in3.0 mm 0.00 in0.0 mm 0.33 in8.4 mm
10:10 AM 46.9°F8.3°C 45.0°F7.2°C 93% 3.0 mph S4.8 kmh S 5.0 mph8.0 kmh 29.81 in1009.5 mb 0.11 in2.8 mm 0.00 in0.0 mm 0.33 in8.4 mm
10:15 AM 47.0°F8.3°C 45.1°F7.3°C 93% 4.0 mph S6.4 kmh S 6.0 mph9.7 kmh 29.81 in1009.5 mb 0.10 in2.5 mm 0.00 in0.0 mm 0.33 in8.4 mm
10:20 AM 47.0°F8.3°C 45.1°F7.3°C 93% 2.0 mph SSE3.2 kmh SSE 5.0 mph8.0 kmh 29.81 in1009.5 mb 0.09 in2.3 mm 0.00 in0.0 mm 0.33 in8.4 mm
10:24 AM 47.1°F8.4°C 45.2°F7.3°C 93% 6.0 mph S9.7 kmh S 6.0 mph9.7 kmh 29.80 in1009.1 mb 0.08 in2.0 mm 0.00 in0.0 mm 0.33 in8.4 mm
10:29 AM 47.2°F8.4°C 45.3°F7.4°C 93% 4.0 mph SSW6.4 kmh SSW 6.0 mph9.7 kmh 29.80 in1009.1 mb 0.08 in2.0 mm 0.00 in0.0 mm 0.33 in8.4 mm
10:34 AM 47.4°F8.6°C 45.5°F7.5°C 93% 2.0 mph SW3.2 kmh SW 8.0 mph12.9 kmh 29.80 in1009.1 mb 0.07 in1.8 mm 0.00 in0.0 mm 0.33 in8.4 mm
10:40 AM 47.5°F8.6°C 45.6°F7.6°C 93% 3.0 mph S4.8 kmh S 5.0 mph8.0 kmh 29.80 in1009.1 mb 0.06 in1.5 mm 0.00 in0.0 mm 0.33 in8.4 mm
10:44 AM 47.5°F8.6°C 45.6°F7.6°C 93% 5.0 mph S8.0 kmh S 6.0 mph9.7 kmh 29.79 in1008.8 mb 0.05 in1.3 mm 0.00 in0.0 mm 0.33 in8.4 mm
10:50 AM 47.6°F8.7°C 45.7°F7.6°C 93% 4.0 mph SSW6.4 kmh SSW 6.0 mph9.7 kmh 29.79 in1008.8 mb 0.04 in1.0 mm 0.00 in0.0 mm 0.33 in8.4 mm
10:55 AM 47.6°F8.7°C 45.7°F7.6°C 93% 6.0 mph SSE9.7 kmh SSE 7.0 mph11.3 kmh 29.77 in1008.1 mb 0.03 in0.8 mm 0.00 in0.0 mm 0.33 in8.4 mm
11:00 AM 47.6°F8.7°C 45.7°F7.6°C 93% 4.0 mph S6.4 kmh S 9.0 mph14.5 kmh 29.76 in1007.8 mb 0.03 in0.8 mm 0.00 in0.0 mm 0.33 in8.4 mm
11:05 AM 47.6°F8.7°C 45.7°F7.6°C 93% 5.0 mph SSE8.0 kmh SSE 10.0 mph16.1 kmh 29.75 in1007.5 mb 0.02 in0.5 mm 0.00 in0.0 mm 0.33 in8.4 mm
11:10 AM 47.7°F8.7°C 45.8°F7.7°C 93% 5.0 mph S8.0 kmh S 10.0 mph16.1 kmh 29.75 in1007.5 mb 0.01 in0.3 mm 0.00 in0.0 mm 0.33 in8.4 mm
11:15 AM 47.9°F8.8°C 46.0°F7.8°C 93% 5.0 mph S8.0 kmh S 8.0 mph12.9 kmh 29.75 in1007.5 mb 0.01 in0.3 mm 0.00 in0.0 mm 0.33 in8.4 mm
11:20 AM 48.3°F9.1°C 46.4°F8.0°C 93% 8.0 mph S12.9 kmh S 12.0 mph19.3 kmh 29.76 in1007.8 mb 0.01 in0.3 mm 0.00 in0.0 mm 0.33 in8.4 mm
11:25 AM 48.6°F9.2°C 46.7°F8.2°C 93% 9.0 mph SW14.5 kmh SW 12.0 mph19.3 kmh 29.76 in1007.8 mb 0.01 in0.3 mm 0.00 in0.0 mm 0.33 in8.4 mm
11:30 AM 48.8°F9.3°C 46.9°F8.3°C 93% 6.0 mph S9.7 kmh S 12.0 mph19.3 kmh 29.76 in1007.8 mb 0.02 in0.5 mm 0.12 in3.0 mm 0.34 in8.6 mm
11:35 AM 49.0°F9.4°C 47.1°F8.4°C 93% 7.0 mph SW11.3 kmh SW 10.0 mph16.1 kmh 29.75 in1007.5 mb 0.01 in0.3 mm 0.00 in0.0 mm 0.34 in8.6 mm
11:40 AM 49.3°F9.6°C 47.4°F8.6°C 93% 9.0 mph S14.5 kmh S 16.0 mph25.7 kmh 29.75 in1007.5 mb 0.01 in0.3 mm 0.00 in0.0 mm 0.34 in8.6 mm
11:45 AM 49.5°F9.7°C 47.6°F8.7°C 93% 8.0 mph S12.9 kmh S 12.0 mph19.3 kmh 29.75 in1007.5 mb 0.01 in0.3 mm 0.00 in0.0 mm 0.34 in8.6 mm
11:50 AM 49.6°F9.8°C 47.4°F8.6°C 92% 5.0 mph SSW8.0 kmh SSW 16.0 mph25.7 kmh 29.75 in1007.5 mb 0.01 in0.3 mm 0.00 in0.0 mm 0.34 in8.6 mm
11:55 AM 49.7°F9.8°C 47.5°F8.6°C 92% 8.0 mph S12.9 kmh S 12.0 mph19.3 kmh 29.75 in1007.5 mb 0.01 in0.3 mm 0.00 in0.0 mm 0.34 in8.6 mm
12:00 PM 50.0°F10.0°C 47.8°F8.8°C 92% 5.0 mph SSW8.0 kmh SSW 17.0 mph27.4 kmh 29.75 in1007.5 mb 0.01 in0.3 mm 0.00 in0.0 mm 0.34 in8.6 mm
12:05 PM 50.3°F10.2°C 48.1°F8.9°C 92% 4.0 mph WSW6.4 kmh WSW 13.0 mph20.9 kmh 29.75 in1007.5 mb 0.01 in0.3 mm 0.00 in0.0 mm 0.34 in8.6 mm
12:10 PM 50.5°F10.3°C 48.0°F8.9°C 91% 3.0 mph S4.8 kmh S 15.0 mph24.1 kmh 29.75 in1007.5 mb 0.01 in0.3 mm 0.00 in0.0 mm 0.34 in8.6 mm
12:15 PM 50.6°F10.3°C 48.1°F8.9°C 91% 9.0 mph SW14.5 kmh SW 11.0 mph17.7 kmh 29.75 in1007.5 mb 0.01 in0.3 mm 0.00 in0.0 mm 0.34 in8.6 mm
12:19 PM 50.8°F10.4°C 48.0°F8.9°C 90% 6.0 mph SW9.7 kmh SW 9.0 mph14.5 kmh 29.74 in1007.1 mb 0.01 in0.3 mm 0.00 in0.0 mm 0.34 in8.6 mm
12:25 PM 50.8°F10.4°C 48.0°F8.9°C 90% 3.0 mph SSW4.8 kmh SSW 8.0 mph12.9 kmh 29.75 in1007.5 mb 0.01 in0.3 mm 0.00 in0.0 mm 0.34 in8.6 mm
12:30 PM 50.8°F10.4°C 48.0°F8.9°C 90% 9.0 mph SW14.5 kmh SW 11.0 mph17.7 kmh 29.75 in1007.5 mb 0.01 in0.3 mm 0.00 in0.0 mm 0.34 in8.6 mm
12:35 PM 50.8°F10.4°C 47.7°F8.7°C 89% 10.0 mph SW16.1 kmh SW 15.0 mph24.1 kmh 29.76 in1007.8 mb 0.00 in0.0 mm 0.00 in0.0 mm 0.34 in8.6 mm
12:40 PM 50.8°F10.4°C 47.7°F8.7°C 89% 6.0 mph SSW9.7 kmh SSW 13.0 mph20.9 kmh 29.76 in1007.8 mb 0.00 in0.0 mm 0.00 in0.0 mm 0.34 in8.6 mm
12:45 PM 50.8°F10.4°C 47.7°F8.7°C 89% 8.0 mph SW12.9 kmh SW 17.0 mph27.4 kmh 29.76 in1007.8 mb 0.00 in0.0 mm 0.00 in0.0 mm 0.34 in8.6 mm
12:50 PM 50.6°F10.3°C 47.5°F8.6°C 89% 5.0 mph SSW8.0 kmh SSW 12.0 mph19.3 kmh 29.75 in1007.5 mb 0.00 in0.0 mm 0.00 in0.0 mm 0.34 in8.6 mm
12:55 PM 50.5°F10.3°C 47.7°F8.7°C 90% 8.0 mph SW12.9 kmh SW 11.0 mph17.7 kmh 29.75 in1007.5 mb 0.00 in0.0 mm 0.00 in0.0 mm 0.34 in8.6 mm
01:00 PM 50.4°F10.2°C 47.6°F8.7°C 90% 7.0 mph S11.3 kmh S 8.0 mph12.9 kmh 29.75 in1007.5 mb 0.00 in0.0 mm 0.00 in0.0 mm 0.34 in8.6 mm
01:04 PM 50.3°F10.2°C 47.8°F8.8°C 91% 6.0 mph S9.7 kmh S 9.0 mph14.5 kmh 29.75 in1007.5 mb 0.00 in0.0 mm 0.00 in0.0 mm 0.34 in8.6 mm
01:09 PM 50.3°F10.2°C 47.8°F8.8°C 91% 5.0 mph WSW8.0 kmh WSW 12.0 mph19.3 kmh 29.75 in1007.5 mb 0.00 in0.0 mm 0.00 in0.0 mm 0.34 in8.6 mm
01:14 PM 50.3°F10.2°C 47.8°F8.8°C 91% 4.0 mph SW6.4 kmh SW 15.0 mph24.1 kmh 29.75 in1007.5 mb 0.00 in0.0 mm 0.00 in0.0 mm 0.34 in8.6 mm
01:20 PM 50.3°F10.2°C 48.1°F8.9°C 92% 13.0 mph SW20.9 kmh SW 13.0 mph20.9 kmh 29.75 in1007.5 mb 0.00 in0.0 mm 0.00 in0.0 mm 0.34 in8.6 mm
01:25 PM 50.3°F10.2°C 48.1°F8.9°C 92% 6.0 mph S9.7 kmh S 15.0 mph24.1 kmh 29.74 in1007.1 mb 0.00 in0.0 mm 0.00 in0.0 mm 0.34 in8.6 mm
01:30 PM 50.4°F10.2°C 48.2°F9.0°C 92% 5.0 mph SW8.0 kmh SW 11.0 mph17.7 kmh 29.74 in1007.1 mb 0.00 in0.0 mm 0.00 in0.0 mm 0.34 in8.6 mm
01:35 PM 50.4°F10.2°C 48.2°F9.0°C 92% 5.0 mph S8.0 kmh S 12.0 mph19.3 kmh 29.73 in1006.8 mb 0.00 in0.0 mm 0.00 in0.0 mm 0.34 in8.6 mm
01:40 PM 50.4°F10.2°C 48.2°F9.0°C 92% 5.0 mph SW8.0 kmh SW 9.0 mph14.5 kmh 29.73 in1006.8 mb 0.00 in0.0 mm 0.00 in0.0 mm 0.34 in8.6 mm
01:45 PM 50.4°F10.2°C 48.2°F9.0°C 92% 6.0 mph S9.7 kmh S 10.0 mph16.1 kmh 29.73 in1006.8 mb 0.00 in0.0 mm 0.00 in0.0 mm 0.34 in8.6 mm
01:50 PM 50.5°F10.3°C 48.3°F9.1°C 92% 6.0 mph SW9.7 kmh SW 14.0 mph22.5 kmh 29.73 in1006.8 mb 0.00 in0.0 mm 0.00 in0.0 mm 0.34 in8.6 mm
01:55 PM 50.5°F10.3°C 48.3°F9.1°C 92% 5.0 mph S8.0 kmh S 9.0 mph14.5 kmh 29.73 in1006.8 mb 0.00 in0.0 mm 0.00 in0.0 mm 0.34 in8.6 mm
02:00 PM 50.5°F10.3°C 48.3°F9.1°C 92% 6.0 mph SW9.7 kmh SW 14.0 mph22.5 kmh 29.72 in1006.4 mb 0.00 in0.0 mm 0.00 in0.0 mm 0.34 in8.6 mm
02:05 PM 50.5°F10.3°C 48.3°F9.1°C 92% 6.0 mph SW9.7 kmh SW 12.0 mph19.3 kmh 29.72 in1006.4 mb 0.00 in0.0 mm 0.00 in0.0 mm 0.34 in8.6 mm
02:10 PM 50.5°F10.3°C 48.0°F8.9°C 91% 5.0 mph SW8.0 kmh SW 9.0 mph14.5 kmh 29.71 in1006.1 mb 0.00 in0.0 mm 0.00 in0.0 mm 0.34 in8.6 mm
02:15 PM 50.6°F10.3°C 48.1°F8.9°C 91% 6.0 mph SW9.7 kmh SW 12.0 mph19.3 kmh 29.72 in1006.4 mb 0.00 in0.0 mm 0.00 in0.0 mm 0.34 in8.6 mm
02:20 PM 50.6°F10.3°C 48.1°F8.9°C 91% 9.0 mph NW14.5 kmh NW 10.0 mph16.1 kmh 29.73 in1006.8 mb 0.00 in0.0 mm 0.00 in0.0 mm 0.34 in8.6 mm
02:24 PM 48.1°F8.9°C 44.4°F6.9°C 87% 9.0 mph WSW14.5 kmh WSW 15.0 mph24.1 kmh 29.74 in1007.1 mb 0.00 in0.0 mm 0.00 in0.0 mm 0.34 in8.6 mm
02:30 PM 45.8°F7.7°C 42.2°F5.7°C 87% 5.0 mph NNW8.0 kmh NNW 13.0 mph20.9 kmh 29.75 in1007.5 mb 0.00 in0.0 mm 0.00 in0.0 mm 0.34 in8.6 mm
02:34 PM 44.0°F6.7°C 40.4°F4.7°C 87% 2.0 mph NW3.2 kmh NW 8.0 mph12.9 kmh 29.75 in1007.5 mb 0.00 in0.0 mm 0.00 in0.0 mm 0.34 in8.6 mm
02:40 PM 42.9°F6.1°C 39.6°F4.2°C 88% 7.0 mph W11.3 kmh W 9.0 mph14.5 kmh 29.75 in1007.5 mb 0.01 in0.3 mm 0.10 in2.5 mm 0.35 in8.9 mm
02:45 PM 42.1°F5.6°C 39.1°F3.9°C 89% 12.0 mph WSW19.3 kmh WSW 12.0 mph19.3 kmh 29.75 in1007.5 mb 0.01 in0.3 mm 0.00 in0.0 mm 0.35 in8.9 mm
02:50 PM 41.4°F5.2°C 38.4°F3.6°C 89% 7.0 mph WNW11.3 kmh WNW 9.0 mph14.5 kmh 29.74 in1007.1 mb 0.01 in0.3 mm 0.00 in0.0 mm 0.35 in8.9 mm
02:55 PM 41.1°F5.1°C 38.4°F3.6°C 90% 1.0 mph NW1.6 kmh NW 6.0 mph9.7 kmh 29.73 in1006.8 mb 0.02 in0.5 mm 0.12 in3.0 mm 0.36 in9.1 mm
03:00 PM 41.0°F5.0°C 38.3°F3.5°C 90% Calm Calm 4.0 mph6.4 kmh 29.74 in1007.1 mb 0.02 in0.5 mm 0.00 in0.0 mm 0.36 in9.1 mm
03:04 PM 40.6°F4.8°C 37.9°F3.3°C 90% 4.0 mph W6.4 kmh W 10.0 mph16.1 kmh 29.74 in1007.1 mb 0.02 in0.5 mm 0.00 in0.0 mm 0.36 in9.1 mm
03:10 PM 40.4°F4.7°C 38.0°F3.3°C 91% 5.0 mph WSW8.0 kmh WSW 9.0 mph14.5 kmh 29.74 in1007.1 mb 0.02 in0.5 mm 0.00 in0.0 mm 0.36 in9.1 mm
03:15 PM 40.0°F4.4°C 37.6°F3.1°C 91% 6.0 mph SW9.7 kmh SW 13.0 mph20.9 kmh 29.75 in1007.5 mb 0.02 in0.5 mm 0.00 in0.0 mm 0.36 in9.1 mm
03:20 PM 39.6°F4.2°C 37.2°F2.9°C 91% 3.0 mph W4.8 kmh W 7.0 mph11.3 kmh 29.75 in1007.5 mb 0.02 in0.5 mm 0.00 in0.0 mm 0.36 in9.1 mm
03:25 PM 39.5°F4.2°C 37.1°F2.8°C 91% 4.0 mph WSW6.4 kmh WSW 8.0 mph12.9 kmh 29.75 in1007.5 mb 0.02 in0.5 mm 0.00 in0.0 mm 0.36 in9.1 mm
03:30 PM 39.3°F4.1°C 36.9°F2.7°C 91% 7.0 mph WNW11.3 kmh WNW 7.0 mph11.3 kmh 29.75 in1007.5 mb 0.02 in0.5 mm 0.00 in0.0 mm 0.36 in9.1 mm
03:35 PM 39.1°F3.9°C 36.7°F2.6°C 91% 5.0 mph NW8.0 kmh NW 8.0 mph12.9 kmh 29.75 in1007.5 mb 0.02 in0.5 mm 0.00 in0.0 mm 0.36 in9.1 mm
03:39 PM 38.7°F3.7°C 36.0°F2.2°C 90% 9.0 mph WSW14.5 kmh WSW 9.0 mph14.5 kmh 29.75 in1007.5 mb 0.02 in0.5 mm 0.00 in0.0 mm 0.36 in9.1 mm
03:45 PM 38.3°F3.5°C 35.6°F2.0°C 90% 2.0 mph NW3.2 kmh NW 7.0 mph11.3 kmh 29.75 in1007.5 mb 0.01 in0.3 mm 0.00 in0.0 mm 0.36 in9.1 mm
03:49 PM 38.1°F3.4°C 35.7°F2.1°C 91% 3.0 mph WSW4.8 kmh WSW 7.0 mph11.3 kmh 29.75 in1007.5 mb 0.01 in0.3 mm 0.00 in0.0 mm 0.36 in9.1 mm
03:55 PM 37.9°F3.3°C 35.5°F1.9°C 91% 3.0 mph WNW4.8 kmh WNW 7.0 mph11.3 kmh 29.75 in1007.5 mb 0.01 in0.3 mm 0.00 in0.0 mm 0.36 in9.1 mm
04:00 PM 37.7°F3.2°C 35.3°F1.8°C 91% 4.0 mph W6.4 kmh W 6.0 mph9.7 kmh 29.75 in1007.5 mb 0.00 in0.0 mm 0.00 in0.0 mm 0.36 in9.1 mm
04:05 PM 37.5°F3.1°C 35.1°F1.7°C 91% 3.0 mph W4.8 kmh W 4.0 mph6.4 kmh 29.76 in1007.8 mb 0.00 in0.0 mm 0.00 in0.0 mm 0.36 in9.1 mm
04:10 PM 37.2°F2.9°C 34.8°F1.6°C 91% 3.0 mph WNW4.8 kmh WNW 11.0 mph17.7 kmh 29.76 in1007.8 mb 0.00 in0.0 mm 0.00 in0.0 mm 0.36 in9.1 mm
04:15 PM 36.8°F2.7°C 34.4°F1.3°C 91% 2.0 mph WNW3.2 kmh WNW 7.0 mph11.3 kmh 29.76 in1007.8 mb 0.00 in0.0 mm 0.00 in0.0 mm 0.36 in9.1 mm
04:19 PM 36.6°F2.6°C 34.2°F1.2°C 91% 5.0 mph SW8.0 kmh SW 8.0 mph12.9 kmh 29.76 in1007.8 mb 0.00 in0.0 mm 0.00 in0.0 mm 0.36 in9.1 mm
04:25 PM 36.3°F2.4°C 33.9°F1.1°C 91% 2.0 mph WNW3.2 kmh WNW 7.0 mph11.3 kmh 29.75 in1007.5 mb 0.00 in0.0 mm 0.00 in0.0 mm 0.36 in9.1 mm
04:29 PM 36.2°F2.3°C 33.8°F1.0°C 91% 4.0 mph W6.4 kmh W 9.0 mph14.5 kmh 29.75 in1007.5 mb 0.00 in0.0 mm 0.00 in0.0 mm 0.36 in9.1 mm
04:34 PM 36.0°F2.2°C 33.6°F0.9°C 91% 2.0 mph WNW3.2 kmh WNW 6.0 mph9.7 kmh 29.76 in1007.8 mb 0.00 in0.0 mm 0.00 in0.0 mm 0.36 in9.1 mm
04:39 PM 35.9°F2.2°C 33.5°F0.8°C 91% 5.0 mph NW8.0 kmh NW 9.0 mph14.5 kmh 29.76 in1007.8 mb 0.00 in0.0 mm 0.00 in0.0 mm 0.36 in9.1 mm
04:45 PM 35.5°F1.9°C 33.1°F0.6°C 91% 4.0 mph WNW6.4 kmh WNW 10.0 mph16.1 kmh 29.76 in1007.8 mb 0.00 in0.0 mm 0.00 in0.0 mm 0.36 in9.1 mm
04:50 PM 35.0°F1.7°C 32.6°F0.3°C 91% 3.0 mph W4.8 kmh W 9.0 mph14.5 kmh 29.75 in1007.5 mb 0.00 in0.0 mm 0.00 in0.0 mm 0.36 in9.1 mm
04:55 PM 34.7°F1.5°C 32.4°F0.2°C 91% 3.0 mph WNW4.8 kmh WNW 5.0 mph8.0 kmh 29.75 in1007.5 mb 0.00 in0.0 mm 0.00 in0.0 mm 0.36 in9.1 mm
05:00 PM 34.7°F1.5°C 32.4°F0.2°C 91% 4.0 mph WNW6.4 kmh WNW 8.0 mph12.9 kmh 29.76 in1007.8 mb 0.00 in0.0 mm 0.00 in0.0 mm 0.36 in9.1 mm
05:05 PM 34.3°F1.3°C 32.0°F0.0°C 91% 1.0 mph SW1.6 kmh SW 9.0 mph14.5 kmh 29.76 in1007.8 mb 0.00 in0.0 mm 0.00 in0.0 mm 0.36 in9.1 mm
05:10 PM 34.1°F1.2°C 31.8°F-0.1°C 91% 8.0 mph WNW12.9 kmh WNW 11.0 mph17.7 kmh 29.75 in1007.5 mb 0.00 in0.0 mm 0.00 in0.0 mm 0.36 in9.1 mm
05:15 PM 33.9°F1.1°C 31.6°F-0.2°C 91% 4.0 mph W6.4 kmh W 6.0 mph9.7 kmh 29.75 in1007.5 mb 0.00 in0.0 mm 0.00 in0.0 mm 0.36 in9.1 mm
05:20 PM 33.6°F0.9°C 31.0°F-0.6°C 90% 3.0 mph WNW4.8 kmh WNW 12.0 mph19.3 kmh 29.75 in1007.5 mb 0.00 in0.0 mm 0.00 in0.0 mm 0.36 in9.1 mm
05:25 PM 33.3°F0.7°C 30.7°F-0.7°C 90% 3.0 mph WNW4.8 kmh WNW 9.0 mph14.5 kmh 29.75 in1007.5 mb 0.00 in0.0 mm 0.00 in0.0 mm 0.36 in9.1 mm
05:30 PM 33.1°F0.6°C 30.8°F-0.7°C 91% 2.0 mph NW3.2 kmh NW 8.0 mph12.9 kmh 29.75 in1007.5 mb 0.00 in0.0 mm 0.00 in0.0 mm 0.36 in9.1 mm
05:35 PM 32.9°F0.5°C 30.6°F-0.8°C 91% 3.0 mph NW4.8 kmh NW 5.0 mph8.0 kmh 29.75 in1007.5 mb 0.00 in0.0 mm 0.00 in0.0 mm 0.36 in9.1 mm
05:40 PM 32.8°F0.4°C 30.5°F-0.8°C 91% 3.0 mph WNW4.8 kmh WNW 8.0 mph12.9 kmh 29.74 in1007.1 mb 0.00 in0.0 mm 0.00 in0.0 mm 0.36 in9.1 mm
05:45 PM 32.5°F0.3°C 30.2°F-1.0°C 91% 5.0 mph NW8.0 kmh NW 9.0 mph14.5 kmh 29.75 in1007.5 mb 0.00 in0.0 mm 0.00 in0.0 mm 0.36 in9.1 mm
05:49 PM 32.4°F0.2°C 30.1°F-1.1°C 91% 1.0 mph WNW1.6 kmh WNW 4.0 mph6.4 kmh 29.76 in1007.8 mb 0.00 in0.0 mm 0.00 in0.0 mm 0.36 in9.1 mm
05:54 PM 32.3°F0.2°C 30.0°F-1.1°C 91% 1.0 mph W1.6 kmh W 7.0 mph11.3 kmh 29.77 in1008.1 mb 0.00 in0.0 mm 0.00 in0.0 mm 0.36 in9.1 mm
06:00 PM 32.1°F0.1°C 29.8°F-1.2°C 91% 3.0 mph NW4.8 kmh NW 8.0 mph12.9 kmh 29.78 in1008.5 mb 0.00 in0.0 mm 0.00 in0.0 mm 0.36 in9.1 mm
06:05 PM 31.8°F-0.1°C 29.2°F-1.6°C 90% 2.0 mph NW3.2 kmh NW 11.0 mph17.7 kmh 29.78 in1008.5 mb 0.00 in0.0 mm 0.00 in0.0 mm 0.36 in9.1 mm
06:10 PM 31.7°F-0.2°C 29.1°F-1.6°C 90% 2.0 mph NW3.2 kmh NW 9.0 mph14.5 kmh 29.79 in1008.8 mb 0.00 in0.0 mm 0.00 in0.0 mm 0.36 in9.1 mm
06:15 PM 31.6°F-0.2°C 29.0°F-1.7°C 90% 5.0 mph NW8.0 kmh NW 10.0 mph16.1 kmh 29.80 in1009.1 mb 0.00 in0.0 mm 0.00 in0.0 mm 0.36 in9.1 mm
06:20 PM 31.6°F-0.2°C 29.0°F-1.7°C 90% 6.0 mph WSW9.7 kmh WSW 6.0 mph9.7 kmh 29.80 in1009.1 mb 0.00 in0.0 mm 0.00 in0.0 mm 0.36 in9.1 mm
06:24 PM 31.7°F-0.2°C 29.1°F-1.6°C 90% 3.0 mph NW4.8 kmh NW 7.0 mph11.3 kmh 29.81 in1009.5 mb 0.00 in0.0 mm 0.00 in0.0 mm 0.36 in9.1 mm
06:30 PM 31.7°F-0.2°C 29.1°F-1.6°C 90% 7.0 mph WSW11.3 kmh WSW 8.0 mph12.9 kmh 29.80 in1009.1 mb 0.00 in0.0 mm 0.00 in0.0 mm 0.36 in9.1 mm
06:35 PM 31.6°F-0.2°C 29.0°F-1.7°C 90% 3.0 mph W4.8 kmh W 7.0 mph11.3 kmh 29.80 in1009.1 mb 0.00 in0.0 mm 0.00 in0.0 mm 0.36 in9.1 mm
06:39 PM 31.6°F-0.2°C 29.0°F-1.7°C 90% 4.0 mph NW6.4 kmh NW 5.0 mph8.0 kmh 29.80 in1009.1 mb 0.00 in0.0 mm 0.00 in0.0 mm 0.36 in9.1 mm
06:45 PM 31.6°F-0.2°C 29.3°F-1.5°C 91% 2.0 mph NW3.2 kmh NW 4.0 mph6.4 kmh 29.79 in1008.8 mb 0.00 in0.0 mm 0.00 in0.0 mm 0.36 in9.1 mm
06:50 PM 31.6°F-0.2°C 29.3°F-1.5°C 91% 2.0 mph WNW3.2 kmh WNW 7.0 mph11.3 kmh 29.80 in1009.1 mb 0.00 in0.0 mm 0.00 in0.0 mm 0.36 in9.1 mm
06:55 PM 31.6°F-0.2°C 29.3°F-1.5°C 91% 4.0 mph NW6.4 kmh NW 6.0 mph9.7 kmh 29.79 in1008.8 mb 0.00 in0.0 mm 0.00 in0.0 mm 0.36 in9.1 mm
07:00 PM 31.5°F-0.3°C 29.2°F-1.6°C 91% 5.0 mph NW8.0 kmh NW 8.0 mph12.9 kmh 29.79 in1008.8 mb 0.00 in0.0 mm 0.00 in0.0 mm 0.36 in9.1 mm
07:04 PM 31.5°F-0.3°C 29.2°F-1.6°C 91% 1.0 mph NW1.6 kmh NW 6.0 mph9.7 kmh 29.80 in1009.1 mb 0.00 in0.0 mm 0.00 in0.0 mm 0.36 in9.1 mm
07:10 PM 31.4°F-0.3°C 29.1°F-1.6°C 91% 7.0 mph NW11.3 kmh NW 7.0 mph11.3 kmh 29.80 in1009.1 mb 0.00 in0.0 mm 0.00 in0.0 mm 0.36 in9.1 mm
07:15 PM 31.3°F-0.4°C 28.7°F-1.8°C 90% Calm Calm 9.0 mph14.5 kmh 29.80 in1009.1 mb 0.00 in0.0 mm 0.00 in0.0 mm 0.36 in9.1 mm
07:20 PM 31.2°F-0.4°C 28.6°F-1.9°C 90% 1.0 mph NW1.6 kmh NW 7.0 mph11.3 kmh 29.82 in1009.8 mb 0.00 in0.0 mm 0.00 in0.0 mm 0.36 in9.1 mm
07:25 PM 31.2°F-0.4°C 28.6°F-1.9°C 90% 2.0 mph NW3.2 kmh NW 5.0 mph8.0 kmh 29.82 in1009.8 mb 0.00 in0.0 mm 0.00 in0.0 mm 0.36 in9.1 mm
07:30 PM 31.1°F-0.5°C 28.5°F-1.9°C 90% 4.0 mph NW6.4 kmh NW 7.0 mph11.3 kmh 29.81 in1009.5 mb 0.00 in0.0 mm 0.00 in0.0 mm 0.36 in9.1 mm
07:35 PM 30.9°F-0.6°C 28.1°F-2.2°C 89% 3.0 mph NW4.8 kmh NW 7.0 mph11.3 kmh 29.81 in1009.5 mb 0.00 in0.0 mm 0.00 in0.0 mm 0.36 in9.1 mm
07:40 PM 30.8°F-0.7°C 28.0°F-2.2°C 89% 3.0 mph NW4.8 kmh NW 5.0 mph8.0 kmh 29.82 in1009.8 mb 0.00 in0.0 mm 0.00 in0.0 mm 0.36 in9.1 mm
07:45 PM 30.7°F-0.7°C 27.9°F-2.3°C 89% 3.0 mph NNW4.8 kmh NNW 6.0 mph9.7 kmh 29.82 in1009.8 mb 0.00 in0.0 mm 0.00 in0.0 mm 0.36 in9.1 mm
07:50 PM 30.6°F-0.8°C 27.8°F-2.3°C 89% 5.0 mph NW8.0 kmh NW 6.0 mph9.7 kmh 29.83 in1010.2 mb 0.00 in0.0 mm 0.00 in0.0 mm 0.36 in9.1 mm
07:55 PM 30.4°F-0.9°C 27.3°F-2.6°C 88% 5.0 mph NW8.0 kmh NW 9.0 mph14.5 kmh 29.82 in1009.8 mb 0.00 in0.0 mm 0.00 in0.0 mm 0.36 in9.1 mm
08:00 PM 30.4°F-0.9°C 27.3°F-2.6°C 88% 3.0 mph NNW4.8 kmh NNW 6.0 mph9.7 kmh 29.83 in1010.2 mb 0.00 in0.0 mm 0.00 in0.0 mm 0.36 in9.1 mm
08:05 PM 30.3°F-0.9°C 27.2°F-2.7°C 88% 5.0 mph NW8.0 kmh NW 5.0 mph8.0 kmh 29.83 in1010.2 mb 0.00 in0.0 mm 0.00 in0.0 mm 0.36 in9.1 mm
08:10 PM 30.2°F-1.0°C 27.1°F-2.7°C 88% Calm Calm 6.0 mph9.7 kmh 29.82 in1009.8 mb 0.00 in0.0 mm 0.00 in0.0 mm 0.36 in9.1 mm
08:15 PM 30.2°F-1.0°C 27.1°F-2.7°C 88% 1.0 mph NW1.6 kmh NW 4.0 mph6.4 kmh 29.82 in1009.8 mb 0.00 in0.0 mm 0.00 in0.0 mm 0.36 in9.1 mm
08:20 PM 30.1°F-1.1°C 27.0°F-2.8°C 88% 5.0 mph NW8.0 kmh NW 5.0 mph8.0 kmh 29.81 in1009.5 mb 0.00 in0.0 mm 0.00 in0.0 mm 0.36 in9.1 mm
08:25 PM 29.9°F-1.2°C 26.5°F-3.1°C 87% 8.0 mph NW12.9 kmh NW 10.0 mph16.1 kmh 29.81 in1009.5 mb 0.00 in0.0 mm 0.00 in0.0 mm 0.36 in9.1 mm
08:29 PM 29.7°F-1.3°C 26.3°F-3.2°C 87% 5.0 mph NW8.0 kmh NW 8.0 mph12.9 kmh 29.81 in1009.5 mb 0.00 in0.0 mm 0.00 in0.0 mm 0.36 in9.1 mm
08:34 PM 29.6°F-1.3°C 26.2°F-3.2°C 87% 3.0 mph NW4.8 kmh NW 5.0 mph8.0 kmh 29.82 in1009.8 mb 0.00 in0.0 mm 0.00 in0.0 mm 0.36 in9.1 mm
08:40 PM 29.5°F-1.4°C 26.1°F-3.3°C 87% 4.0 mph NW6.4 kmh NW 9.0 mph14.5 kmh 29.82 in1009.8 mb 0.00 in0.0 mm 0.00 in0.0 mm 0.36 in9.1 mm
08:45 PM 29.5°F-1.4°C 26.1°F-3.3°C 87% 1.0 mph NNW1.6 kmh NNW 8.0 mph12.9 kmh 29.82 in1009.8 mb 0.00 in0.0 mm 0.00 in0.0 mm 0.36 in9.1 mm
08:49 PM 29.4°F-1.4°C 26.0°F-3.3°C 87% 6.0 mph NW9.7 kmh NW 8.0 mph12.9 kmh 29.82 in1009.8 mb 0.00 in0.0 mm 0.00 in0.0 mm 0.36 in9.1 mm
08:55 PM 29.2°F-1.6°C 25.8°F-3.4°C 87% 5.0 mph NW8.0 kmh NW 7.0 mph11.3 kmh 29.82 in1009.8 mb 0.00 in0.0 mm 0.00 in0.0 mm 0.36 in9.1 mm
09:00 PM 29.0°F-1.7°C 25.6°F-3.6°C 87% 1.0 mph NW1.6 kmh NW 9.0 mph14.5 kmh 29.84 in1010.5 mb 0.00 in0.0 mm 0.00 in0.0 mm 0.36 in9.1 mm
09:05 PM 28.9°F-1.7°C 25.5°F-3.6°C 87% 1.0 mph NW1.6 kmh NW 9.0 mph14.5 kmh 29.84 in1010.5 mb 0.00 in0.0 mm 0.00 in0.0 mm 0.36 in9.1 mm
09:10 PM 28.8°F-1.8°C 25.4°F-3.7°C 87% 3.0 mph NW4.8 kmh NW 5.0 mph8.0 kmh 29.83 in1010.2 mb 0.00 in0.0 mm 0.00 in0.0 mm 0.36 in9.1 mm
09:15 PM 28.8°F-1.8°C 25.4°F-3.7°C 87% 4.0 mph WNW6.4 kmh WNW 7.0 mph11.3 kmh 29.84 in1010.5 mb 0.00 in0.0 mm 0.00 in0.0 mm 0.36 in9.1 mm
09:20 PM 28.7°F-1.8°C 25.3°F-3.7°C 87% 1.0 mph NW1.6 kmh NW 4.0 mph6.4 kmh 29.84 in1010.5 mb 0.00 in0.0 mm 0.00 in0.0 mm 0.36 in9.1 mm
09:25 PM 28.7°F-1.8°C 25.3°F-3.7°C 87% Calm Calm 5.0 mph8.0 kmh 29.84 in1010.5 mb 0.00 in0.0 mm 0.00 in0.0 mm 0.36 in9.1 mm
09:30 PM 28.7°F-1.8°C 25.1°F-3.8°C 86% 1.0 mph NNW1.6 kmh NNW 6.0 mph9.7 kmh 29.83 in1010.2 mb 0.00 in0.0 mm 0.00 in0.0 mm 0.36 in9.1 mm
09:35 PM 28.7°F-1.8°C 25.1°F-3.8°C 86% 4.0 mph NW6.4 kmh NW 4.0 mph6.4 kmh 29.83 in1010.2 mb 0.00 in0.0 mm 0.00 in0.0 mm 0.36 in9.1 mm
09:40 PM 28.7°F-1.8°C 25.1°F-3.8°C 86% 1.0 mph NW1.6 kmh NW 6.0 mph9.7 kmh 29.82 in1009.8 mb 0.00 in0.0 mm 0.00 in0.0 mm 0.36 in9.1 mm
09:45 PM 28.7°F-1.8°C 25.1°F-3.8°C 86% Calm Calm 5.0 mph8.0 kmh 29.82 in1009.8 mb 0.00 in0.0 mm 0.00 in0.0 mm 0.36 in9.1 mm
09:50 PM 28.7°F-1.8°C 25.1°F-3.8°C 86% 3.0 mph NW4.8 kmh NW 5.0 mph8.0 kmh 29.83 in1010.2 mb 0.00 in0.0 mm 0.00 in0.0 mm 0.36 in9.1 mm
09:55 PM 28.7°F-1.8°C 25.1°F-3.8°C 86% 4.0 mph NW6.4 kmh NW 5.0 mph8.0 kmh 29.83 in1010.2 mb 0.00 in0.0 mm 0.00 in0.0 mm 0.36 in9.1 mm
10:00 PM 28.7°F-1.8°C 25.3°F-3.7°C 87% 2.0 mph NW3.2 kmh NW 3.0 mph4.8 kmh 29.82 in1009.8 mb 0.00 in0.0 mm 0.00 in0.0 mm 0.36 in9.1 mm
10:05 PM 28.8°F-1.8°C 25.4°F-3.7°C 87% 1.0 mph NW1.6 kmh NW 4.0 mph6.4 kmh 29.83 in1010.2 mb 0.00 in0.0 mm 0.00 in0.0 mm 0.36 in9.1 mm
10:10 PM 28.8°F-1.8°C 25.4°F-3.7°C 87% 3.0 mph NNW4.8 kmh NNW 8.0 mph12.9 kmh 29.83 in1010.2 mb 0.00 in0.0 mm 0.00 in0.0 mm 0.36 in9.1 mm
10:15 PM 28.8°F-1.8°C 25.4°F-3.7°C 87% 2.0 mph NNW3.2 kmh NNW 5.0 mph8.0 kmh 29.84 in1010.5 mb 0.00 in0.0 mm 0.00 in0.0 mm 0.36 in9.1 mm
10:20 PM 28.8°F-1.8°C 25.4°F-3.7°C 87% 1.0 mph NNW1.6 kmh NNW 3.0 mph4.8 kmh 29.84 in1010.5 mb 0.00 in0.0 mm 0.00 in0.0 mm 0.36 in9.1 mm
10:25 PM 28.9°F-1.7°C 25.5°F-3.6°C 87% 6.0 mph NW9.7 kmh NW 6.0 mph9.7 kmh 29.83 in1010.2 mb 0.00 in0.0 mm 0.00 in0.0 mm 0.36 in9.1 mm
10:30 PM 28.8°F-1.8°C 25.4°F-3.7°C 87% 7.0 mph NW11.3 kmh NW 10.0 mph16.1 kmh 29.84 in1010.5 mb 0.00 in0.0 mm 0.00 in0.0 mm 0.36 in9.1 mm
10:35 PM 28.6°F-1.9°C 25.2°F-3.8°C 87% 2.0 mph W3.2 kmh W 8.0 mph12.9 kmh 29.84 in1010.5 mb 0.00 in0.0 mm 0.00 in0.0 mm 0.36 in9.1 mm
10:39 PM 28.4°F-2.0°C 25.0°F-3.9°C 87% 7.0 mph NW11.3 kmh NW 8.0 mph12.9 kmh 29.83 in1010.2 mb 0.00 in0.0 mm 0.00 in0.0 mm 0.36 in9.1 mm
10:45 PM 28.3°F-2.1°C 24.9°F-3.9°C 87% 9.0 mph NNW14.5 kmh NNW 10.0 mph16.1 kmh 29.83 in1010.2 mb 0.00 in0.0 mm 0.00 in0.0 mm 0.36 in9.1 mm
10:50 PM 28.2°F-2.1°C 24.8°F-4.0°C 87% 3.0 mph NNW4.8 kmh NNW 9.0 mph14.5 kmh 29.83 in1010.2 mb 0.00 in0.0 mm 0.00 in0.0 mm 0.36 in9.1 mm
10:55 PM 28.2°F-2.1°C 25.1°F-3.8°C 88% 4.0 mph N6.4 kmh N 5.0 mph8.0 kmh 29.83 in1010.2 mb 0.00 in0.0 mm 0.00 in0.0 mm 0.36 in9.1 mm
11:00 PM 28.1°F-2.2°C 25.0°F-3.9°C 88% 6.0 mph NW9.7 kmh NW 11.0 mph17.7 kmh 29.84 in1010.5 mb 0.00 in0.0 mm 0.00 in0.0 mm 0.36 in9.1 mm
11:04 PM 28.0°F-2.2°C 24.6°F-4.1°C 87% 3.0 mph NW4.8 kmh NW 8.0 mph12.9 kmh 29.84 in1010.5 mb 0.00 in0.0 mm 0.00 in0.0 mm 0.36 in9.1 mm
11:10 PM 27.9°F-2.3°C 24.5°F-4.2°C 87% 5.0 mph NW8.0 kmh NW 10.0 mph16.1 kmh 29.83 in1010.2 mb 0.00 in0.0 mm 0.00 in0.0 mm 0.36 in9.1 mm
11:15 PM 27.7°F-2.4°C 24.3°F-4.3°C 87% 4.0 mph NW6.4 kmh NW 10.0 mph16.1 kmh 29.84 in1010.5 mb 0.00 in0.0 mm 0.00 in0.0 mm 0.36 in9.1 mm
11:20 PM 27.5°F-2.5°C 24.2°F-4.3°C 87% 2.0 mph NW3.2 kmh NW 9.0 mph14.5 kmh 29.84 in1010.5 mb 0.00 in0.0 mm 0.00 in0.0 mm 0.36 in9.1 mm
11:25 PM 27.4°F-2.6°C 24.1°F-4.4°C 87% 3.0 mph NW4.8 kmh NW 7.0 mph11.3 kmh 29.84 in1010.5 mb 0.00 in0.0 mm 0.00 in0.0 mm 0.36 in9.1 mm
11:30 PM 27.5°F-2.5°C 24.4°F-4.2°C 88% 2.0 mph NNW3.2 kmh NNW 5.0 mph8.0 kmh 29.83 in1010.2 mb 0.00 in0.0 mm 0.00 in0.0 mm 0.36 in9.1 mm
11:34 PM 27.4°F-2.6°C 24.3°F-4.3°C 88% 4.0 mph NW6.4 kmh NW 8.0 mph12.9 kmh 29.83 in1010.2 mb 0.00 in0.0 mm 0.00 in0.0 mm 0.36 in9.1 mm
11:39 PM 27.4°F-2.6°C 24.1°F-4.4°C 87% 3.0 mph NNW4.8 kmh NNW 11.0 mph17.7 kmh 29.83 in1010.2 mb 0.00 in0.0 mm 0.00 in0.0 mm 0.36 in9.1 mm
11:45 PM 27.3°F-2.6°C 24.0°F-4.4°C 87% 5.0 mph NW8.0 kmh NW 9.0 mph14.5 kmh 29.84 in1010.5 mb 0.00 in0.0 mm 0.00 in0.0 mm 0.36 in9.1 mm
11:50 PM 27.2°F-2.7°C 23.9°F-4.5°C 87% 6.0 mph NNW9.7 kmh NNW 13.0 mph20.9 kmh 29.85 in1010.8 mb 0.00 in0.0 mm 0.00 in0.0 mm 0.36 in9.1 mm
11:55 PM 27.2°F-2.7°C 23.9°F-4.5°C 87% 4.0 mph NW6.4 kmh NW 8.0 mph12.9 kmh 29.86 in1011.2 mb 0.00 in0.0 mm 0.00 in0.0 mm 0.36 in9.1 mm
11:59 PM 27.2°F-2.7°C 23.9°F-4.5°C 87% Calm Calm 5.0 mph8.0 kmh 29.86 in1011.2 mb 0.00 in0.0 mm 0.00 in0.0 mm 0.36 in9.1 mm